Time;durP1;ratioP1;P1;durP2;ratioP2;P2;SDS_P1;SDS_P2;PMS_P1;PMS_P2;Temp;Humidity;BMP_temperature;BMP_pressure;BME280_temperature;BME280_humidity;BME280_pressure;Samples;Min_cycle;Max_cycle;Signal;HPM_P1;HPM_P2
2021/04/26 00:00:36;;;;;;;5.20;4.65;;;;;;;12.58;63.23;95487.09;5098942;28;20031;-43
2021/04/26 00:03:02;;;;;;;4.70;4.35;;;;;;;12.59;63.39;95485.28;5096675;28;20487;-44
2021/04/26 00:05:28;;;;;;;4.88;4.47;;;;;;;12.57;63.28;95490.72;5097843;28;20028;-44
2021/04/26 00:07:55;;;;;;;4.47;4.10;;;;;;;12.57;63.03;95495.16;5105317;28;20028;-43
2021/04/26 00:10:21;;;;;;;5.10;4.70;;;;;;;12.60;62.42;95493.03;5104151;28;20039;-45
2021/04/26 00:12:48;;;;;;;4.65;4.30;;;;;;;12.65;61.57;95479.38;5101847;28;20020;-45
2021/04/26 00:15:18;;;;;;;4.85;4.35;;;;;;;12.65;62.84;95478.53;5102769;28;20592;-44
2021/04/26 00:17:44;;;;;;;5.85;5.38;;;;;;;12.65;62.83;95473.25;5102659;28;20498;-45
2021/04/26 00:20:11;;;;;;;5.82;5.32;;;;;;;12.68;63.16;95470.28;5099796;28;20028;-43
2021/04/26 00:22:37;;;;;;;5.40;4.90;;;;;;;12.58;63.36;95476.53;5098157;28;20088;-46
2021/04/26 00:25:06;;;;;;;14.20;9.73;;;;;;;12.54;63.15;95483.13;5100568;28;20044;-44
2021/04/26 00:27:33;;;;;;;9.20;7.90;;;;;;;12.55;63.46;95481.28;5102322;28;20024;-44
2021/04/26 00:29:58;;;;;;;14.70;10.75;;;;;;;12.58;62.62;95471.25;5102255;28;20034;-44
2021/04/26 00:32:24;;;;;;;12.68;9.63;;;;;;;12.61;62.48;95465.66;5098193;28;20019;-45
2021/04/26 00:34:49;;;;;;;10.65;8.30;;;;;;;12.63;62.65;95470.78;5099903;28;20438;-43
2021/04/26 00:37:15;;;;;;;10.43;8.20;;;;;;;12.60;63.86;95477.19;5103011;28;20034;-44
2021/04/26 00:39:40;;;;;;;9.90;8.20;;;;;;;12.57;65.04;95481.97;5099241;28;20072;-44
2021/04/26 00:42:06;;;;;;;8.20;7.10;;;;;;;12.53;64.88;95475.34;5099152;28;20025;-44
2021/04/26 00:44:31;;;;;;;8.13;7.28;;;;;;;12.53;64.93;95470.91;5101251;28;20108;-46
2021/04/26 00:46:57;;;;;;;7.82;7.00;;;;;;;12.54;65.05;95472.56;5099470;28;20077;-45
2021/04/26 00:49:22;;;;;;;9.52;6.47;;;;;;;12.59;65.05;95469.44;5100718;28;20035;-43
2021/04/26 00:51:48;;;;;;;8.27;7.57;;;;;;;12.57;64.11;95474.88;5097303;28;20024;-45
2021/04/26 00:54:14;;;;;;;7.72;7.00;;;;;;;12.49;64.52;95472.22;5101918;28;20031;-45
2021/04/26 00:56:39;;;;;;;7.75;6.97;;;;;;;12.41;65.32;95473.00;5102319;28;20027;-43
2021/04/26 00:59:05;;;;;;;9.43;7.32;;;;;;;12.45;64.67;95468.22;5099323;28;20040;-44
2021/04/26 01:01:31;;;;;;;12.70;9.75;;;;;;;12.51;64.51;95467.59;5102918;28;20075;-44
2021/04/26 01:03:56;;;;;;;15.30;10.43;;;;;;;12.45;65.59;95462.94;5100803;28;20030;-46
2021/04/26 01:06:22;;;;;;;15.00;11.27;;;;;;;12.40;65.88;95460.81;5102799;28;20114;-45
2021/04/26 01:08:48;;;;;;;14.73;11.63;;;;;;;12.41;65.59;95456.31;5098390;28;20055;-44
2021/04/26 01:11:14;;;;;;;14.80;11.00;;;;;;;12.46;64.91;95451.38;5101757;28;20023;-44
2021/04/26 01:13:50;;;;;;;14.57;10.00;;;;;;;12.44;64.84;95456.00;5100304;28;20697;-43
2021/04/26 01:16:22;;;;;;;10.73;8.90;;;;;;;12.50;64.43;95444.00;5100638;28;20035;-44
2021/04/26 01:19:09;;;;;;;11.48;7.43;;;;;;;12.49;63.98;95443.19;5098067;28;20039;-44
2021/04/26 01:21:53;;;;;;;7.78;6.90;;;;;;;12.45;64.52;95447.94;5101098;28;20051;-44
2021/04/26 01:24:40;;;;;;;6.55;5.95;;;;;;;12.44;65.08;95463.94;5100846;28;20391;-43
2021/04/26 01:27:23;;;;;;;6.85;6.18;;;;;;;12.44;64.54;95467.41;5101674;28;20020;-45
2021/04/26 01:30:08;;;;;;;6.10;5.50;;;;;;;12.44;64.88;95467.41;5096140;28;20028;-44
2021/04/26 01:32:49;;;;;;;6.35;5.75;;;;;;;12.38;67.44;95473.34;5098685;28;20672;-44
2021/04/26 01:35:18;;;;;;;5.57;5.18;;;;;;;12.27;67.44;95471.81;5099567;28;20043;-45
2021/04/26 01:37:49;;;;;;;7.30;6.57;;;;;;;12.22;68.88;95476.69;5087391;28;20020;-43
2021/04/26 01:40:15;;;;;;;11.07;7.82;;;;;;;12.22;67.78;95467.97;5104033;28;20098;-43
2021/04/26 01:42:43;;;;;;;6.68;6.07;;;;;;;12.22;67.85;95474.06;5096638;28;20024;-44
2021/04/26 01:45:12;;;;;;;5.78;5.38;;;;;;;12.16;67.67;95474.69;5104427;28;20085;-43
2021/04/26 01:47:39;;;;;;;6.00;5.50;;;;;;;12.22;67.11;95474.06;5100397;28;20054;-43
2021/04/26 01:50:08;;;;;;;5.88;5.38;;;;;;;12.32;66.23;95476.59;5099499;28;20059;-44
2021/04/26 01:52:34;;;;;;;5.68;5.28;;;;;;;12.37;65.75;95479.56;5098605;28;20024;-43
2021/04/26 01:55:02;;;;;;;6.18;5.47;;;;;;;12.41;65.74;95482.72;5097549;28;20039;-42
2021/04/26 01:57:30;;;;;;;5.95;5.55;;;;;;;12.43;65.27;95486.03;5100101;28;20024;-44
2021/04/26 02:00:00;;;;;;;7.20;4.85;;;;;;;12.45;65.05;95484.91;5095265;28;20086;-44
2021/04/26 02:02:26;;;;;;;5.88;5.28;;;;;;;12.44;65.65;95479.78;5099171;28;20036;-43
2021/04/26 02:04:53;;;;;;;5.65;5.05;;;;;;;12.41;65.21;95478.28;5103691;28;20065;-43
2021/04/26 02:07:20;;;;;;;5.38;4.93;;;;;;;12.51;65.41;95488.72;5112546;28;20039;-43
2021/04/26 02:09:47;;;;;;;6.25;4.72;;;;;;;12.46;66.15;95493.63;5103719;28;20020;-45
2021/04/26 02:12:14;;;;;;;5.55;5.05;;;;;;;12.27;66.93;95497.34;5105027;28;20055;-43
2021/04/26 02:14:42;;;;;;;5.72;5.18;;;;;;;12.11;67.25;95492.81;5103118;28;20024;-44
2021/04/26 02:17:08;;;;;;;5.65;5.15;;;;;;;12.12;68.07;95486.56;5105937;28;20032;-44
2021/04/26 02:19:34;;;;;;;5.53;5.05;;;;;;;12.10;67.09;95488.53;5100061;28;20050;-44
2021/04/26 02:22:00;;;;;;;4.90;4.60;;;;;;;12.09;66.77;95478.97;5105607;28;20027;-44
2021/04/26 02:24:26;;;;;;;5.18;4.78;;;;;;;12.11;66.49;95482.25;5102293;28;20024;-43
2021/04/26 02:26:52;;;;;;;7.00;5.55;;;;;;;12.13;67.11;95489.03;5102759;28;20028;-44
2021/04/26 02:29:18;;;;;;;6.40;4.95;;;;;;;12.04;67.36;95484.69;5099542;28;20538;-44
2021/04/26 02:31:50;;;;;;;6.15;5.65;;;;;;;12.10;67.65;95486.69;5103571;28;20016;-43
2021/04/26 02:34:27;;;;;;;7.20;5.60;;;;;;;11.98;69.15;95480.84;5102789;28;20028;-44
2021/04/26 02:37:01;;;;;;;5.30;4.90;;;;;;;12.08;68.18;95482.59;5102640;28;20091;-43
2021/04/26 02:39:30;;;;;;;6.15;5.38;;;;;;;12.08;68.59;95478.13;5103135;28;20052;-44
2021/04/26 02:41:56;;;;;;;6.20;5.50;;;;;;;11.91;68.99;95471.91;5104206;28;20381;-45
2021/04/26 02:44:25;;;;;;;8.13;5.18;;;;;;;11.86;69.45;95479.44;5103527;28;20039;-44
2021/04/26 02:46:59;;;;;;;5.80;5.40;;;;;;;11.89;68.91;95476.50;5106197;28;20032;-48
2021/04/26 02:49:26;;;;;;;5.55;5.05;;;;;;;11.98;68.77;95472.91;5101063;28;20103;-44
2021/04/26 02:51:52;;;;;;;6.10;5.50;;;;;;;11.93;70.75;95469.94;5100237;28;20028;-46
2021/04/26 02:54:20;;;;;;;6.82;5.63;;;;;;;11.80;71.56;95480.06;5104406;28;20084;-44
2021/04/26 02:56:48;;;;;;;6.20;5.18;;;;;;;11.75;72.21;95484.00;5102987;28;20034;-43
2021/04/26 02:59:19;;;;;;;5.82;5.18;;;;;;;11.67;72.17;95483.94;5103466;28;20105;-44
2021/04/26 03:01:45;;;;;;;5.55;5.15;;;;;;;11.75;72.06;95484.00;5098806;28;20084;-43
2021/04/26 03:04:11;;;;;;;6.47;5.88;;;;;;;11.96;72.72;95479.34;5103079;28;20032;-45
2021/04/26 03:06:37;;;;;;;9.07;6.20;;;;;;;11.88;73.27;95474.84;5101776;28;20035;-43
2021/04/26 03:09:03;;;;;;;6.32;5.78;;;;;;;11.82;74.18;95472.81;5104587;28;20391;-45
2021/04/26 03:11:30;;;;;;;7.15;6.00;;;;;;;11.65;76.00;95471.88;5103274;28;20032;-43
2021/04/26 03:13:56;;;;;;;7.82;6.38;;;;;;;11.52;75.89;95473.13;5102231;28;20092;-44
2021/04/26 03:16:22;;;;;;;6.15;5.60;;;;;;;11.26;77.21;95478.34;5099983;28;20034;-44
2021/04/26 03:18:49;;;;;;;11.10;6.43;;;;;;;11.00;78.25;95474.63;5101656;28;20028;-43
2021/04/26 03:21:16;;;;;;;6.63;6.00;;;;;;;11.04;77.77;95475.19;5103821;28;20046;-45
2021/04/26 03:23:42;;;;;;;7.35;5.75;;;;;;;11.10;77.73;95482.47;5099168;28;20062;-43
2021/04/26 03:26:09;;;;;;;8.20;7.43;;;;;;;11.04;80.23;95485.72;5100404;28;20135;-44
2021/04/26 03:28:37;;;;;;;6.82;6.25;;;;;;;10.98;79.95;95478.41;5101272;28;20023;-43
2021/04/26 03:31:04;;;;;;;7.47;6.70;;;;;;;10.93;79.71;95478.00;5106399;28;20027;-43
2021/04/26 03:33:32;;;;;;;7.05;6.45;;;;;;;11.00;79.39;95472.00;5101953;28;20035;-45
2021/04/26 03:35:57;;;;;;;7.78;7.07;;;;;;;11.04;79.98;95472.53;5105274;28;20035;-44
2021/04/26 03:38:23;;;;;;;7.13;6.43;;;;;;;10.97;81.71;95484.66;5102383;28;20031;-44
2021/04/26 03:40:49;;;;;;;7.65;6.95;;;;;;;10.98;80.53;95481.88;5104947;28;20023;-44
2021/04/26 03:43:17;;;;;;;7.43;6.80;;;;;;;11.03;80.46;95476.97;5102164;28;20038;-44
2021/04/26 03:45:43;;;;;;;9.25;6.75;;;;;;;10.98;80.52;95476.59;5104236;28;20023;-43
2021/04/26 03:48:09;;;;;;;10.02;7.95;;;;;;;10.96;79.61;95475.09;5100486;28;20027;-43
2021/04/26 03:50:35;;;;;;;7.65;6.50;;;;;;;10.96;79.37;95478.56;5099368;28;20036;-44
2021/04/26 03:53:00;;;;;;;8.48;7.03;;;;;;;10.98;78.85;95473.16;5101848;28;20031;-42
2021/04/26 03:55:26;;;;;;;7.93;7.22;;;;;;;11.01;78.45;95468.38;5102931;28;20024;-42
2021/04/26 03:57:52;;;;;;;9.10;8.10;;;;;;;10.96;80.02;95472.47;5103570;28;20119;-45
2021/04/26 04:00:19;;;;;;;7.45;6.68;;;;;;;10.93;80.02;95478.00;5098577;28;20111;-43
2021/04/26 04:02:48;;;;;;;7.38;6.68;;;;;;;10.86;79.43;95465.44;5102460;28;20019;-42
2021/04/26 04:05:14;;;;;;;8.32;6.82;;;;;;;10.82;79.92;95465.88;5099344;28;20434;-42
2021/04/26 04:07:40;;;;;;;7.97;7.20;;;;;;;10.87;80.22;95456.56;5103964;28;20028;-43
2021/04/26 04:10:09;;;;;;;8.20;6.90;;;;;;;10.82;80.85;95463.25;5102215;28;20031;-43
2021/04/26 04:12:35;;;;;;;10.10;6.63;;;;;;;10.78;81.39;95457.47;5101698;28;20020;-45
2021/04/26 04:15:00;;;;;;;10.93;7.25;;;;;;;10.72;81.31;95465.94;5098438;28;20034;-43
2021/04/26 04:17:26;;;;;;;7.10;6.50;;;;;;;10.77;81.41;95455.81;5104095;28;20038;-43
2021/04/26 04:19:52;;;;;;;8.13;6.90;;;;;;;10.74;81.96;95453.50;5098206;28;20031;-45
2021/04/26 04:22:18;;;;;;;6.68;6.03;;;;;;;10.71;81.39;95459.03;5101306;28;20044;-43
2021/04/26 04:24:44;;;;;;;11.88;7.15;;;;;;;10.67;81.47;95458.53;5098524;28;20088;-43
2021/04/26 04:27:10;;;;;;;10.90;6.72;;;;;;;10.72;81.71;95461.53;5101698;28;20062;-43
2021/04/26 04:29:35;;;;;;;7.93;7.22;;;;;;;10.66;81.31;95461.28;5099838;28;20483;-44
2021/04/26 04:32:01;;;;;;;9.57;7.43;;;;;;;10.57;81.12;95463.84;5103275;28;20058;-43
2021/04/26 04:34:26;;;;;;;8.35;7.65;;;;;;;10.56;80.84;95467.44;5102949;28;20031;-45
2021/04/26 04:36:52;;;;;;;8.10;7.38;;;;;;;10.50;81.20;95473.31;5103025;28;20115;-43
2021/04/26 04:39:18;;;;;;;8.35;7.07;;;;;;;10.39;81.70;95469.03;5104257;28;20424;-45
2021/04/26 04:41:43;;;;;;;10.00;7.00;;;;;;;10.43;81.83;95467.81;5100651;28;20101;-45
2021/04/26 04:44:09;;;;;;;8.18;7.38;;;;;;;10.51;82.56;95472.34;5104983;28;20062;-43
2021/04/26 04:46:35;;;;;;;8.57;7.68;;;;;;;10.48;81.43;95467.34;5101171;28;20020;-43
2021/04/26 04:49:01;;;;;;;10.75;7.43;;;;;;;10.34;80.50;95463.38;5103936;28;20031;-45
2021/04/26 04:51:27;;;;;;;10.32;8.20;;;;;;;10.30;81.31;95452.31;5100025;28;20028;-43
2021/04/26 04:53:55;;;;;;;9.13;8.27;;;;;;;10.42;81.14;95460.03;5099380;28;20388;-43
2021/04/26 04:56:20;;;;;;;8.93;8.20;;;;;;;10.31;81.26;95448.72;5098693;28;20039;-43
2021/04/26 04:58:46;;;;;;;9.45;8.63;;;;;;;10.15;82.27;95453.78;5103061;28;20039;-46
2021/04/26 05:01:12;;;;;;;9.55;8.68;;;;;;;10.10;83.07;95446.31;5101121;28;20081;-44
2021/04/26 05:03:37;;;;;;;12.63;9.68;;;;;;;9.94;84.29;95443.44;5107405;28;20138;-44
2021/04/26 05:06:03;;;;;;;10.90;9.90;;;;;;;9.92;84.55;95434.88;5102183;28;20024;-45
2021/04/26 05:08:29;;;;;;;12.23;9.27;;;;;;;9.93;83.73;95431.28;5098781;28;20028;-44
2021/04/26 05:10:54;;;;;;;14.45;10.45;;;;;;;9.93;83.80;95424.22;5102874;28;20031;-43
2021/04/26 05:13:20;;;;;;;10.43;9.52;;;;;;;9.86;83.45;95426.59;5104820;28;20517;-43
2021/04/26 05:15:46;;;;;;;10.88;9.85;;;;;;;9.84;83.99;95428.56;5097731;28;20403;-45
2021/04/26 05:18:11;;;;;;;11.75;10.45;;;;;;;9.95;83.69;95432.00;5097971;28;20043;-44
2021/04/26 05:20:40;;;;;;;11.10;9.95;;;;;;;10.09;83.80;95422.78;5100761;28;20047;-46
2021/04/26 05:23:06;;;;;;;10.48;9.68;;;;;;;10.12;83.41;95420.69;5098684;28;20399;-43
2021/04/26 05:25:31;;;;;;;10.48;9.38;;;;;;;10.19;83.54;95423.56;5099426;28;20024;-44
2021/04/26 05:27:57;;;;;;;12.85;9.82;;;;;;;10.17;83.52;95428.97;5101824;28;20494;-43
2021/04/26 05:30:23;;;;;;;10.65;9.60;;;;;;;10.23;83.55;95435.44;5085569;28;20449;-44
2021/04/26 05:32:49;;;;;;;9.88;8.88;;;;;;;10.19;83.74;95444.59;5101705;28;20031;-45
2021/04/26 05:35:15;;;;;;;10.25;9.45;;;;;;;10.24;83.32;95439.72;5102468;28;20031;-46
2021/04/26 05:37:40;;;;;;;10.50;9.50;;;;;;;10.25;84.05;95437.94;5101564;28;20114;-45
2021/04/26 05:40:06;;;;;;;13.02;10.40;;;;;;;10.28;84.34;95429.75;5111919;28;20506;-44
2021/04/26 05:42:32;;;;;;;11.50;10.43;;;;;;;10.28;84.07;95443.75;5109391;28;20047;-46
2021/04/26 05:44:57;;;;;;;11.57;10.38;;;;;;;10.34;82.78;95441.50;5102854;28;20032;-44
2021/04/26 05:47:23;;;;;;;12.57;10.90;;;;;;;10.28;83.07;95449.00;5105559;28;20028;-45
2021/04/26 05:49:48;;;;;;;11.02;10.00;;;;;;;10.36;82.50;95450.06;5105116;28;20027;-44
2021/04/26 05:52:14;;;;;;;15.32;9.75;;;;;;;10.32;82.75;95453.00;5108603;28;20047;-46
2021/04/26 05:54:40;;;;;;;12.40;11.20;;;;;;;10.29;83.30;95458.56;5102288;28;20384;-45
2021/04/26 05:57:06;;;;;;;12.48;9.70;;;;;;;10.30;83.31;95446.22;5104299;28;20047;-45
2021/04/26 05:59:31;;;;;;;11.88;9.65;;;;;;;10.41;82.55;95453.13;5104244;28;20130;-44
2021/04/26 06:01:57;;;;;;;10.43;9.63;;;;;;;10.53;81.65;95451.97;5104909;28;20020;-48
2021/04/26 06:04:22;;;;;;;10.38;9.50;;;;;;;10.58;81.10;95448.84;5103134;28;20562;-45
2021/04/26 06:06:48;;;;;;;11.60;10.25;;;;;;;10.68;80.57;95457.53;5105689;28;20496;-48
2021/04/26 06:09:13;;;;;;;14.75;10.23;;;;;;;10.74;80.05;95461.41;5106344;28;20032;-44
2021/04/26 06:11:39;;;;;;;10.30;9.30;;;;;;;10.73;80.06;95471.09;5101578;28;20059;-45
2021/04/26 06:14:05;;;;;;;10.38;9.48;;;;;;;10.74;80.67;95474.56;5104735;28;20030;-45
2021/04/26 06:16:30;;;;;;;10.65;9.52;;;;;;;10.88;79.73;95474.03;5105275;28;20103;-44
2021/04/26 06:18:56;;;;;;;11.07;9.82;;;;;;;10.98;79.50;95473.97;5107184;28;20081;-44
2021/04/26 06:21:21;;;;;;;12.88;9.65;;;;;;;11.14;78.72;95464.56;5099315;28;20112;-45
2021/04/26 06:23:47;;;;;;;11.25;10.23;;;;;;;11.25;78.36;95466.94;5106174;28;20053;-44
2021/04/26 06:26:13;;;;;;;10.27;9.48;;;;;;;11.38;78.08;95461.28;5101225;28;20035;-44
2021/04/26 06:28:38;;;;;;;9.70;8.68;;;;;;;11.58;77.45;95456.69;5106155;28;20016;-46
2021/04/26 06:31:04;;;;;;;10.73;9.63;;;;;;;11.75;77.72;95446.25;5105767;28;20031;-47
2021/04/26 06:33:30;;;;;;;10.23;9.23;;;;;;;11.80;77.92;95443.97;5103023;28;20059;-45
2021/04/26 06:35:55;;;;;;;10.35;9.45;;;;;;;11.50;78.71;95455.78;5102306;28;20024;-47
2021/04/26 06:38:22;;;;;;;13.80;9.85;;;;;;;11.22;79.28;95461.19;5104464;28;20731;-45
2021/04/26 06:40:47;;;;;;;10.18;9.38;;;;;;;11.30;79.27;95445.41;5102554;28;20361;-44
2021/04/26 06:43:14;;;;;;;11.13;8.82;;;;;;;11.18;79.54;95440.41;5100589;28;20030;-44
2021/04/26 06:45:40;;;;;;;10.10;9.15;;;;;;;11.12;79.04;95438.34;5103823;28;20545;-45
2021/04/26 06:48:07;;;;;;;9.65;8.85;;;;;;;11.06;79.29;95441.59;5104970;28;20027;-44
2021/04/26 06:50:33;;;;;;;11.05;9.90;;;;;;;11.22;78.19;95456.72;5103720;28;20024;-46
2021/04/26 06:52:58;;;;;;;12.95;9.95;;;;;;;11.27;78.12;95453.63;5102038;28;20459;-45
2021/04/26 06:55:25;;;;;;;9.73;8.82;;;;;;;11.25;77.28;95445.88;5105895;28;20028;-47
2021/04/26 06:57:52;;;;;;;9.55;8.75;;;;;;;11.37;77.48;95437.75;5100911;28;20054;-48
2021/04/26 07:00:19;;;;;;;9.18;8.38;;;;;;;11.48;76.84;95432.22;5101885;28;20511;-46
2021/04/26 07:02:47;;;;;;;10.13;9.23;;;;;;;11.59;77.36;95437.25;5101050;28;20141;-46
2021/04/26 07:05:13;;;;;;;10.30;9.25;;;;;;;11.77;77.84;95432.91;5104725;28;20042;-44
2021/04/26 07:07:38;;;;;;;9.75;8.80;;;;;;;11.93;77.01;95417.16;5099616;28;20426;-44
2021/04/26 07:10:07;;;;;;;9.90;8.93;;;;;;;12.08;76.65;95417.44;5094129;28;20042;-46
2021/04/26 07:12:33;;;;;;;9.88;9.00;;;;;;;11.95;77.35;95425.75;5101183;28;20467;-44
2021/04/26 07:14:59;;;;;;;10.43;9.48;;;;;;;12.11;77.10;95425.03;5101015;28;20097;-48
2021/04/26 07:17:26;;;;;;;12.02;9.65;;;;;;;12.29;76.18;95417.03;5103994;28;20495;-45
2021/04/26 07:19:51;;;;;;;11.45;9.82;;;;;;;12.32;76.51;95398.25;5101700;28;20043;-44
2021/04/26 07:22:17;;;;;;;11.27;10.15;;;;;;;12.21;76.30;95402.97;5096669;28;20043;-47
2021/04/26 07:24:43;;;;;;;11.85;10.65;;;;;;;12.18;77.26;95401.47;5101370;28;20024;-45
2021/04/26 07:27:09;;;;;;;11.23;10.13;;;;;;;12.06;78.47;95400.13;5102134;28;20564;-46
2021/04/26 07:29:35;;;;;;;10.20;9.18;;;;;;;12.01;77.28;95398.75;5103846;28;20067;-44
2021/04/26 07:32:02;;;;;;;9.63;8.73;;;;;;;12.14;76.84;95386.94;5101291;28;20034;-45
2021/04/26 07:34:28;;;;;;;11.35;9.25;;;;;;;12.25;76.62;95391.91;5100827;28;20089;-46
2021/04/26 07:36:53;;;;;;;10.93;9.20;;;;;;;12.80;75.50;95395.03;5109075;28;20090;-46
2021/04/26 07:39:21;;;;;;;9.73;8.93;;;;;;;13.13;73.95;95381.84;5101088;28;20036;-49
2021/04/26 07:41:47;;;;;;;10.90;8.88;;;;;;;13.25;73.74;95390.25;5104604;28;20027;-45
2021/04/26 07:44:13;;;;;;;12.70;8.93;;;;;;;13.88;72.25;95387.06;5103083;28;20032;-47
2021/04/26 07:46:39;;;;;;;12.70;8.50;;;;;;;14.68;69.67;95376.41;5110820;28;20111;-46
2021/04/26 07:49:05;;;;;;;8.80;7.90;;;;;;;15.09;68.52;95378.00;5104574;28;20110;-46
2021/04/26 07:51:32;;;;;;;12.30;7.70;;;;;;;15.27;66.40;95373.22;5084289;28;20097;-48
2021/04/26 07:53:58;;;;;;;12.80;8.35;;;;;;;14.85;67.98;95364.75;5102358;28;20454;-44
2021/04/26 07:56:24;;;;;;;8.55;7.65;;;;;;;14.47;67.43;95365.47;5100399;28;20054;-45
2021/04/26 07:58:50;;;;;;;9.70;8.25;;;;;;;14.40;67.44;95364.50;5100910;28;20450;-44
2021/04/26 08:01:16;;;;;;;9.07;7.85;;;;;;;14.27;67.29;95373.03;5099977;28;20024;-44
2021/04/26 08:03:42;;;;;;;9.40;8.38;;;;;;;14.03;68.12;95374.75;5104768;28;20046;-46
2021/04/26 08:06:07;;;;;;;8.52;7.78;;;;;;;13.92;69.22;95374.28;5099231;28;20035;-49
2021/04/26 08:08:36;;;;;;;7.97;7.25;;;;;;;13.70;68.69;95366.09;5105519;28;20020;-44
2021/04/26 08:11:01;;;;;;;8.07;7.35;;;;;;;13.92;68.75;95364.56;5104591;28;20028;-45
2021/04/26 08:13:28;;;;;;;9.02;8.07;;;;;;;13.68;69.67;95366.28;5098431;28;20399;-46
2021/04/26 08:15:54;;;;;;;8.38;7.55;;;;;;;13.42;68.49;95369.94;5100552;28;20027;-45
2021/04/26 08:18:20;;;;;;;8.90;8.05;;;;;;;13.37;68.89;95355.56;5099123;28;20477;-45
2021/04/26 08:20:46;;;;;;;10.60;7.78;;;;;;;13.28;69.38;95358.22;5102311;28;20047;-48
2021/04/26 08:23:12;;;;;;;9.43;8.30;;;;;;;13.25;69.97;95355.09;5102599;28;20494;-45
2021/04/26 08:25:38;;;;;;;9.63;8.63;;;;;;;13.35;70.32;95347.78;5105283;28;20027;-44
2021/04/26 08:28:04;;;;;;;8.32;7.53;;;;;;;13.69;69.32;95348.56;5099696;28;20102;-47
2021/04/26 08:30:30;;;;;;;9.85;8.70;;;;;;;13.64;69.21;95343.81;5097583;28;20104;-46
2021/04/26 08:32:55;;;;;;;11.32;7.90;;;;;;;13.99;68.73;95332.94;5102485;28;20022;-44
2021/04/26 08:35:21;;;;;;;12.20;8.40;;;;;;;14.19;68.74;95338.63;5100513;28;20109;-45
2021/04/26 08:37:47;;;;;;;9.25;8.43;;;;;;;14.53;68.12;95345.41;5100310;28;20024;-44
2021/04/26 08:40:13;;;;;;;8.25;7.25;;;;;;;14.63;66.46;95346.97;5101410;28;20024;-46
2021/04/26 08:42:38;;;;;;;8.43;7.40;;;;;;;15.24;64.85;95347.03;5101921;28;20101;-47
2021/04/26 08:45:06;;;;;;;9.02;7.68;;;;;;;16.23;62.62;95345.16;5103209;28;20024;-44
2021/04/26 08:47:31;;;;;;;9.07;7.28;;;;;;;16.76;60.65;95342.28;5096592;28;20023;-44
2021/04/26 08:49:59;;;;;;;9.55;7.03;;;;;;;16.58;60.81;95348.03;5102185;28;20090;-45
2021/04/26 08:52:25;;;;;;;7.88;7.18;;;;;;;16.78;60.24;95350.06;5102084;28;20935;-45
2021/04/26 08:54:51;;;;;;;8.30;7.50;;;;;;;16.76;59.49;95346.78;5101807;28;20031;-46
2021/04/26 08:57:18;;;;;;;8.82;7.93;;;;;;;16.66;60.78;95348.91;5099816;28;20135;-48
2021/04/26 08:59:45;;;;;;;8.82;7.85;;;;;;;16.75;59.34;95342.47;5099046;28;20445;-46
2021/04/26 09:02:12;;;;;;;8.50;7.80;;;;;;;16.50;59.65;95345.50;5105254;28;20110;-46
2021/04/26 09:04:45;;;;;;;12.48;10.27;;;;;;;16.96;59.28;95344.31;5100433;28;20035;-46
2021/04/26 09:07:13;;;;;;;9.05;8.00;;;;;;;17.07;57.95;95347.53;5102016;28;20031;-44
2021/04/26 09:09:47;;;;;;;8.02;7.32;;;;;;;17.27;57.93;95342.34;5101704;28;20071;-45
2021/04/26 09:12:14;;;;;;;9.23;7.25;;;;;;;17.02;57.67;95343.59;5101617;28;20034;-45
2021/04/26 09:14:45;;;;;;;12.23;10.75;;;;;;;17.12;58.00;95340.59;5097986;28;20562;-45
2021/04/26 09:17:29;;;;;;;8.07;7.32;;;;;;;16.95;58.11;95339.19;5098506;28;20073;-45
2021/04/26 09:19:59;;;;;;;10.27;8.63;;;;;;;16.39;60.24;95343.31;5101392;28;20034;-45
2021/04/26 09:22:46;;;;;;;11.48;7.55;;;;;;;15.79;60.66;95340.69;5102714;28;20020;-45
2021/04/26 09:25:38;;;;;;;10.75;9.20;;;;;;;15.50;61.94;95350.28;5097509;28;20027;-44
2021/04/26 09:28:08;;;;;;;8.55;7.72;;;;;;;15.73;62.28;95350.22;5103053;28;20023;-44
2021/04/26 09:30:53;;;;;;;10.02;7.43;;;;;;;15.63;62.15;95354.97;5099184;28;20827;-48
2021/04/26 09:33:26;;;;;;;10.55;7.78;;;;;;;15.38;62.38;95348.09;5102745;28;20031;-49
2021/04/26 09:36:05;;;;;;;8.05;7.35;;;;;;;15.23;63.95;95344.56;5099998;28;20118;-47
2021/04/26 09:38:33;;;;;;;12.02;8.15;;;;;;;15.43;63.04;95351.03;5102567;28;20023;-49
2021/04/26 09:41:13;;;;;;;9.48;8.02;;;;;;;15.15;62.96;95348.97;5101213;28;20111;-47
2021/04/26 09:43:44;;;;;;;10.15;7.45;;;;;;;15.11;63.53;95349.50;5099478;28;20021;-45
2021/04/26 09:46:11;;;;;;;8.27;7.47;;;;;;;15.15;63.63;95338.34;5099526;28;21902;-49
2021/04/26 09:48:36;;;;;;;8.50;7.70;;;;;;;15.45;62.96;95333.09;5098945;28;20044;-50
2021/04/26 09:51:04;;;;;;;8.50;7.20;;;;;;;15.73;61.71;95335.13;5097265;28;20024;-48
2021/04/26 09:53:41;;;;;;;8.88;8.00;;;;;;;15.71;62.21;95321.22;5098551;28;20399;-46
2021/04/26 09:56:25;;;;;;;8.38;7.32;;;;;;;15.89;62.00;95312.91;5099082;28;20074;-46
2021/04/26 09:58:55;;;;;;;8.38;7.57;;;;;;;16.04;60.92;95312.06;5097726;28;20972;-46
2021/04/26 10:01:21;;;;;;;7.90;7.20;;;;;;;16.12;60.88;95314.59;5098749;28;20028;-44
2021/04/26 10:03:48;;;;;;;9.23;7.32;;;;;;;15.88;61.70;95307.75;5099704;28;20016;-43
2021/04/26 10:06:15;;;;;;;11.52;7.88;;;;;;;16.04;60.82;95299.63;5097484;28;20031;-47
2021/04/26 10:08:50;;;;;;;9.77;8.73;;;;;;;16.08;60.71;95288.63;5101498;28;20073;-48
2021/04/26 10:11:17;;;;;;;8.20;7.15;;;;;;;16.18;61.29;95289.16;5096593;28;20099;-47
2021/04/26 10:13:47;;;;;;;12.43;7.05;;;;;;;16.37;61.08;95289.56;5097241;28;20028;-44
2021/04/26 10:16:18;;;;;;;7.20;6.50;;;;;;;16.21;61.77;95282.66;5099063;28;20023;-46
2021/04/26 10:18:44;;;;;;;7.03;6.43;;;;;;;15.86;61.39;95283.22;5095034;28;20373;-45
2021/04/26 10:21:18;;;;;;;8.40;7.22;;;;;;;15.83;63.24;95278.28;5096807;28;20110;-47
2021/04/26 10:23:49;;;;;;;8.68;7.55;;;;;;;15.77;61.80;95271.88;5096844;28;20027;-46
2021/04/26 10:26:41;;;;;;;7.35;6.63;;;;;;;15.58;61.97;95258.19;5103411;28;20024;-45
2021/04/26 10:29:28;;;;;;;7.20;6.57;;;;;;;15.44;62.41;95249.22;5101318;28;20484;-47
2021/04/26 10:31:56;;;;;;;6.97;6.28;;;;;;;15.40;60.34;95253.25;5102431;28;20384;-44
2021/04/26 10:34:22;;;;;;;7.32;6.57;;;;;;;15.51;60.92;95243.16;5107245;28;20016;-46
2021/04/26 10:37:03;;;;;;;6.95;6.25;;;;;;;15.50;61.97;95239.72;5107816;28;20145;-47
2021/04/26 10:39:31;;;;;;;9.15;6.55;;;;;;;15.80;62.07;95237.00;5106943;28;20020;-46
2021/04/26 10:42:01;;;;;;;8.02;6.30;;;;;;;15.82;60.83;95232.34;5110943;28;20072;-46
2021/04/26 10:44:39;;;;;;;7.13;6.53;;;;;;;15.60;62.13;95226.16;5101823;28;20028;-45
2021/04/26 10:47:17;;;;;;;8.27;6.20;;;;;;;15.68;61.17;95220.75;5102222;28;20491;-45
2021/04/26 10:49:48;;;;;;;6.78;6.07;;;;;;;15.48;61.11;95220.50;5101697;28;20067;-45
2021/04/26 10:52:29;;;;;;;8.15;7.30;;;;;;;15.83;60.97;95214.59;5102976;28;20081;-46
2021/04/26 10:55:01;;;;;;;9.05;7.90;;;;;;;15.56;62.30;95207.13;5101942;28;20476;-45
2021/04/26 10:57:41;;;;;;;12.85;7.38;;;;;;;15.41;62.56;95199.19;5105426;28;20023;-45
2021/04/26 11:00:29;;;;;;;8.68;7.75;;;;;;;15.28;63.39;95188.41;5100487;28;20036;-44
2021/04/26 11:03:25;;;;;;;8.75;7.80;;;;;;;15.18;64.41;95186.88;5084017;28;20044;-46
2021/04/26 11:05:55;;;;;;;8.80;8.10;;;;;;;14.81;65.08;95177.97;5102288;28;20027;-48
2021/04/26 11:08:40;;;;;;;9.45;8.55;;;;;;;14.99;64.30;95168.84;5080807;28;20024;-44
2021/04/26 11:11:30;;;;;;;12.52;8.25;;;;;;;14.85;65.22;95173.13;5106767;28;20059;-46
2021/04/26 11:13:57;;;;;;;8.55;7.93;;;;;;;14.77;65.33;95168.75;5107080;28;20482;-47
2021/04/26 11:16:30;;;;;;;10.07;8.45;;;;;;;14.88;65.09;95152.38;5101374;28;20389;-46
2021/04/26 11:18:58;;;;;;;9.90;8.90;;;;;;;14.80;65.60;95156.94;5100897;28;20117;-45
2021/04/26 11:21:46;;;;;;;9.88;8.95;;;;;;;14.72;65.78;95147.25;5099884;28;20110;-45
2021/04/26 11:24:24;;;;;;;10.23;8.85;;;;;;;14.63;66.41;95148.31;5099316;28;20070;-46
2021/04/26 11:27:08;;;;;;;10.30;8.90;;;;;;;14.72;66.13;95134.03;5098947;28;20537;-47
2021/04/26 11:29:55;;;;;;;10.68;9.57;;;;;;;14.45;66.90;95141.50;5100734;28;20799;-44
2021/04/26 11:32:21;;;;;;;10.18;9.38;;;;;;;14.25;68.00;95141.19;5088642;28;20085;-44
2021/04/26 11:34:47;;;;;;;10.77;9.73;;;;;;;14.24;67.50;95131.63;5104882;28;20046;-44